sensor_id;sensor_type;location;lat;lon;timestamp;pressure;altitude;pressure_sealevel;temperature;humidity
34674;BME280;20879;55.668;37.858;2023-05-07T00:00:16;100836.34;;;-0.67;72.31
34674;BME280;20879;55.668;37.858;2023-05-07T00:02:51;100842.63;;;-0.79;72.11
34674;BME280;20879;55.668;37.858;2023-05-07T00:05:26;100843.41;;;-0.80;72.76
34674;BME280;20879;55.668;37.858;2023-05-07T00:07:55;100842.22;;;-0.86;72.71
34674;BME280;20879;55.668;37.858;2023-05-07T00:10:26;100836.19;;;-0.89;72.79
34674;BME280;20879;55.668;37.858;2023-05-07T00:12:55;100848.19;;;-0.86;72.48
34674;BME280;20879;55.668;37.858;2023-05-07T00:15:27;100832.66;;;-0.92;73.14
34674;BME280;20879;55.668;37.858;2023-05-07T00:17:56;100847.31;;;-0.86;72.74
34674;BME280;20879;55.668;37.858;2023-05-07T00:20:26;100840.28;;;-0.92;73.09
34674;BME280;20879;55.668;37.858;2023-05-07T00:22:56;100840.09;;;-0.95;73.12
34674;BME280;20879;55.668;37.858;2023-05-07T00:25:25;100847.50;;;-1.00;73.34
34674;BME280;20879;55.668;37.858;2023-05-07T00:27:54;100849.19;;;-1.00;73.76
34674;BME280;20879;55.668;37.858;2023-05-07T00:30:26;100850.94;;;-0.99;74.02
34674;BME280;20879;55.668;37.858;2023-05-07T00:32:55;100859.50;;;-0.97;74.01
34674;BME280;20879;55.668;37.858;2023-05-07T00:35:25;100849.81;;;-1.04;73.78
34674;BME280;20879;55.668;37.858;2023-05-07T00:37:56;100845.56;;;-1.22;73.86
34674;BME280;20879;55.668;37.858;2023-05-07T00:40:25;100859.53;;;-1.14;73.87
34674;BME280;20879;55.668;37.858;2023-05-07T00:43:00;100865.88;;;-1.22;74.27
34674;BME280;20879;55.668;37.858;2023-05-07T00:45:37;100867.50;;;-1.24;75.29
34674;BME280;20879;55.668;37.858;2023-05-07T00:48:07;100866.53;;;-1.26;74.81
34674;BME280;20879;55.668;37.858;2023-05-07T00:50:36;100867.19;;;-1.30;75.16
34674;BME280;20879;55.668;37.858;2023-05-07T00:53:11;100863.13;;;-1.27;75.27
34674;BME280;20879;55.668;37.858;2023-05-07T00:55:40;100864.88;;;-1.26;75.74
34674;BME280;20879;55.668;37.858;2023-05-07T00:58:15;100863.75;;;-1.31;75.43
34674;BME280;20879;55.668;37.858;2023-05-07T01:00:51;100864.56;;;-1.32;75.73
34674;BME280;20879;55.668;37.858;2023-05-07T01:03:21;100865.13;;;-1.37;75.67
34674;BME280;20879;55.668;37.858;2023-05-07T01:05:57;100869.06;;;-1.26;77.26
34674;BME280;20879;55.668;37.858;2023-05-07T01:08:28;100863.19;;;-1.25;76.29
34674;BME280;20879;55.668;37.858;2023-05-07T01:10:59;100867.16;;;-1.14;75.72
34674;BME280;20879;55.668;37.858;2023-05-07T01:13:36;100871.53;;;-1.11;75.85
34674;BME280;20879;55.668;37.858;2023-05-07T01:16:08;100871.28;;;-1.16;76.67
34674;BME280;20879;55.668;37.858;2023-05-07T01:18:39;100872.09;;;-1.17;76.10
34674;BME280;20879;55.668;37.858;2023-05-07T01:21:11;100816.75;;;-1.55;75.98
34674;BME280;20879;55.668;37.858;2023-05-07T01:23:48;100881.69;;;-1.28;76.38
34674;BME280;20879;55.668;37.858;2023-05-07T01:26:18;100865.13;;;-1.37;76.14
34674;BME280;20879;55.668;37.858;2023-05-07T01:28:49;100873.13;;;-1.30;76.14
34674;BME280;20879;55.668;37.858;2023-05-07T01:31:18;100871.06;;;-1.37;76.54
34674;BME280;20879;55.668;37.858;2023-05-07T01:33:48;100885.44;;;-1.37;76.63
34674;BME280;20879;55.668;37.858;2023-05-07T01:36:20;100849.22;;;-1.66;77.08
34674;BME280;20879;55.668;37.858;2023-05-07T01:39:00;100881.63;;;-1.46;77.64
34674;BME280;20879;55.668;37.858;2023-05-07T01:41:36;100872.88;;;-1.51;77.70
34674;BME280;20879;55.668;37.858;2023-05-07T01:44:06;100880.03;;;-1.44;77.83
34674;BME280;20879;55.668;37.858;2023-05-07T01:46:36;100889.22;;;-1.29;77.41
34674;BME280;20879;55.668;37.858;2023-05-07T01:49:06;100889.38;;;-1.26;76.68
34674;BME280;20879;55.668;37.858;2023-05-07T01:51:36;100901.63;;;-1.19;76.92
34674;BME280;20879;55.668;37.858;2023-05-07T01:54:07;100881.44;;;-1.16;76.59
34674;BME280;20879;55.668;37.858;2023-05-07T01:56:42;100900.34;;;-1.11;76.35
34674;BME280;20879;55.668;37.858;2023-05-07T01:59:12;100902.03;;;-1.11;76.40
34674;BME280;20879;55.668;37.858;2023-05-07T02:01:47;100907.34;;;-1.07;76.93
34674;BME280;20879;55.668;37.858;2023-05-07T02:04:16;100898.03;;;-1.06;76.71
34674;BME280;20879;55.668;37.858;2023-05-07T02:06:46;100879.22;;;-1.26;76.52
34674;BME280;20879;55.668;37.858;2023-05-07T02:09:18;100907.34;;;-1.07;76.90
34674;BME280;20879;55.668;37.858;2023-05-07T02:11:53;100897.88;;;-1.09;76.36
34674;BME280;20879;55.668;37.858;2023-05-07T02:14:23;100907.81;;;-0.97;76.55
34674;BME280;20879;55.668;37.858;2023-05-07T02:16:59;100899.09;;;-1.02;76.63
34674;BME280;20879;55.668;37.858;2023-05-07T02:19:29;100905.56;;;-0.91;76.47
34674;BME280;20879;55.668;37.858;2023-05-07T02:21:58;100895.63;;;-0.86;76.25
34674;BME280;20879;55.668;37.858;2023-05-07T02:24:32;100899.56;;;-0.75;75.79
34674;BME280;20879;55.668;37.858;2023-05-07T02:27:01;100920.41;;;-0.66;75.46
34674;BME280;20879;55.668;37.858;2023-05-07T02:29:32;100911.72;;;-0.69;75.57
34674;BME280;20879;55.668;37.858;2023-05-07T02:32:02;100918.78;;;-0.64;75.89
34674;BME280;20879;55.668;37.858;2023-05-07T02:34:32;100862.34;;;-0.91;75.83
34674;BME280;20879;55.668;37.858;2023-05-07T02:37:02;100926.16;;;-0.52;75.66
34674;BME280;20879;55.668;37.858;2023-05-07T02:39:33;100920.28;;;-0.51;75.17
34674;BME280;20879;55.668;37.858;2023-05-07T02:42:04;100932.22;;;-0.32;75.28
34674;BME280;20879;55.668;37.858;2023-05-07T02:44:54;100931.66;;;-0.26;74.83
34674;BME280;20879;55.668;37.858;2023-05-07T02:47:24;100946.66;;;-0.31;74.68
34674;BME280;20879;55.668;37.858;2023-05-07T02:49:54;100941.50;;;-0.32;74.72
34674;BME280;20879;55.668;37.858;2023-05-07T02:52:23;100920.56;;;-0.45;74.96
34674;BME280;20879;55.668;37.858;2023-05-07T02:55:00;100944.44;;;-0.25;74.81
34674;BME280;20879;55.668;37.858;2023-05-07T02:57:31;100886.09;;;-0.56;74.51
34674;BME280;20879;55.668;37.858;2023-05-07T03:00:10;100950.13;;;-0.12;74.74
34674;BME280;20879;55.668;37.858;2023-05-07T03:02:44;100943.19;;;-0.15;74.66
34674;BME280;20879;55.668;37.858;2023-05-07T03:05:13;100939.22;;;-0.10;74.40
34674;BME280;20879;55.668;37.858;2023-05-07T03:07:43;100950.63;;;-0.02;74.04
34674;BME280;20879;55.668;37.858;2023-05-07T03:10:21;100955.94;;;0.03;74.17
34674;BME280;20879;55.668;37.858;2023-05-07T03:12:50;100951.94;;;0.08;73.83
34674;BME280;20879;55.668;37.858;2023-05-07T03:15:20;100957.38;;;0.16;74.08
34674;BME280;20879;55.668;37.858;2023-05-07T03:17:49;100950.84;;;0.21;73.77
34674;BME280;20879;55.668;37.858;2023-05-07T03:20:26;100957.06;;;0.28;73.77
34674;BME280;20879;55.668;37.858;2023-05-07T03:22:55;100964.94;;;0.32;73.77
34674;BME280;20879;55.668;37.858;2023-05-07T03:25:27;100957.66;;;0.40;73.69
34674;BME280;20879;55.668;37.858;2023-05-07T03:28:02;100973.28;;;0.48;73.18
34674;BME280;20879;55.668;37.858;2023-05-07T03:30:47;100972.09;;;0.59;72.86
34674;BME280;20879;55.668;37.858;2023-05-07T03:33:22;100962.97;;;0.64;72.52
34674;BME280;20879;55.668;37.858;2023-05-07T03:35:52;100965.53;;;0.64;72.07
34674;BME280;20879;55.668;37.858;2023-05-07T03:38:24;100949.31;;;0.62;72.51
34674;BME280;20879;55.668;37.858;2023-05-07T03:41:00;100972.69;;;0.91;71.82
34674;BME280;20879;55.668;37.858;2023-05-07T03:43:40;100980.31;;;1.11;71.23
34674;BME280;20879;55.668;37.858;2023-05-07T03:46:16;100955.34;;;1.23;70.43
34674;BME280;20879;55.668;37.858;2023-05-07T03:48:46;100966.31;;;1.42;69.57
34674;BME280;20879;55.668;37.858;2023-05-07T03:51:17;100934.94;;;1.23;69.25
34674;BME280;20879;55.668;37.858;2023-05-07T03:53:57;100965.50;;;1.43;69.53
34674;BME280;20879;55.668;37.858;2023-05-07T03:56:34;100978.78;;;1.55;69.05
34674;BME280;20879;55.668;37.858;2023-05-07T03:59:04;100971.53;;;1.45;68.23
34674;BME280;20879;55.668;37.858;2023-05-07T04:01:34;100984.84;;;1.57;68.16
34674;BME280;20879;55.668;37.858;2023-05-07T04:04:04;100995.06;;;1.57;67.74
34674;BME280;20879;55.668;37.858;2023-05-07T04:06:35;100994.00;;;1.73;67.52
34674;BME280;20879;55.668;37.858;2023-05-07T04:09:04;100998.69;;;1.83;66.82
34674;BME280;20879;55.668;37.858;2023-05-07T04:11:38;101002.97;;;2.05;66.24
34674;BME280;20879;55.668;37.858;2023-05-07T04:14:14;100998.72;;;2.27;65.94
34674;BME280;20879;55.668;37.858;2023-05-07T04:16:43;101002.59;;;2.40;65.83
34674;BME280;20879;55.668;37.858;2023-05-07T04:19:14;101001.28;;;2.50;64.90
34674;BME280;20879;55.668;37.858;2023-05-07T04:21:57;101001.84;;;2.42;64.07
34674;BME280;20879;55.668;37.858;2023-05-07T04:24:32;100989.63;;;2.13;63.85
34674;BME280;20879;55.668;37.858;2023-05-07T04:27:04;101004.50;;;2.23;63.96
34674;BME280;20879;55.668;37.858;2023-05-07T04:29:34;100998.06;;;2.33;63.90
34674;BME280;20879;55.668;37.858;2023-05-07T04:32:15;101009.06;;;2.53;63.32
34674;BME280;20879;55.668;37.858;2023-05-07T04:34:45;101009.06;;;2.75;62.18
34674;BME280;20879;55.668;37.858;2023-05-07T04:37:14;100973.69;;;2.88;61.81
34674;BME280;20879;55.668;37.858;2023-05-07T04:39:49;101014.66;;;3.12;59.52
34674;BME280;20879;55.668;37.858;2023-05-07T04:42:37;101006.47;;;2.98;60.13
34674;BME280;20879;55.668;37.858;2023-05-07T04:45:09;101013.34;;;2.99;59.81
34674;BME280;20879;55.668;37.858;2023-05-07T04:47:41;101021.25;;;3.05;59.80
34674;BME280;20879;55.668;37.858;2023-05-07T04:50:11;101001.78;;;3.10;59.99
34674;BME280;20879;55.668;37.858;2023-05-07T04:52:42;100981.22;;;2.83;59.17
34674;BME280;20879;55.668;37.858;2023-05-07T04:55:13;100996.78;;;2.89;59.12
34674;BME280;20879;55.668;37.858;2023-05-07T04:57:49;101018.03;;;2.88;58.25
34674;BME280;20879;55.668;37.858;2023-05-07T05:00:20;101016.16;;;2.83;57.83
34674;BME280;20879;55.668;37.858;2023-05-07T05:02:52;101015.22;;;2.80;57.95
34674;BME280;20879;55.668;37.858;2023-05-07T05:05:23;101016.28;;;2.86;58.40
34674;BME280;20879;55.668;37.858;2023-05-07T05:08:03;101014.88;;;3.18;56.97
34674;BME280;20879;55.668;37.858;2023-05-07T05:10:35;101011.56;;;3.21;56.62
34674;BME280;20879;55.668;37.858;2023-05-07T05:13:07;101026.97;;;3.22;55.50
34674;BME280;20879;55.668;37.858;2023-05-07T05:15:40;101021.03;;;3.23;55.46
34674;BME280;20879;55.668;37.858;2023-05-07T05:18:10;101024.28;;;3.43;54.99
34674;BME280;20879;55.668;37.858;2023-05-07T05:20:40;100993.06;;;3.54;53.71
34674;BME280;20879;55.668;37.858;2023-05-07T05:23:10;101003.66;;;3.39;52.94
34674;BME280;20879;55.668;37.858;2023-05-07T05:25:39;100997.97;;;3.23;53.17
34674;BME280;20879;55.668;37.858;2023-05-07T05:28:13;101009.59;;;3.13;53.50
34674;BME280;20879;55.668;37.858;2023-05-07T05:30:43;101013.69;;;3.32;53.10
34674;BME280;20879;55.668;37.858;2023-05-07T05:33:12;101038.25;;;3.52;53.16
34674;BME280;20879;55.668;37.858;2023-05-07T05:35:42;101025.84;;;3.64;52.42
34674;BME280;20879;55.668;37.858;2023-05-07T05:38:13;100960.47;;;3.49;52.25
34674;BME280;20879;55.668;37.858;2023-05-07T05:40:42;101005.34;;;3.64;51.52
34674;BME280;20879;55.668;37.858;2023-05-07T05:43:14;101037.94;;;3.68;50.48
34674;BME280;20879;55.668;37.858;2023-05-07T05:45:43;101041.63;;;3.76;51.28
34674;BME280;20879;55.668;37.858;2023-05-07T05:48:18;101028.91;;;4.05;51.08
34674;BME280;20879;55.668;37.858;2023-05-07T05:50:48;100996.72;;;3.88;50.64
34674;BME280;20879;55.668;37.858;2023-05-07T05:53:18;101029.47;;;4.22;50.72
34674;BME280;20879;55.668;37.858;2023-05-07T05:55:48;101028.03;;;4.32;49.99
34674;BME280;20879;55.668;37.858;2023-05-07T05:58:20;101038.78;;;4.20;50.00
34674;BME280;20879;55.668;37.858;2023-05-07T06:00:55;101045.09;;;4.04;49.82
34674;BME280;20879;55.668;37.858;2023-05-07T06:03:31;101040.19;;;4.10;50.15
34674;BME280;20879;55.668;37.858;2023-05-07T06:06:05;101030.91;;;4.41;48.97
34674;BME280;20879;55.668;37.858;2023-05-07T06:08:35;101051.41;;;4.70;47.66
34674;BME280;20879;55.668;37.858;2023-05-07T06:11:04;101011.22;;;4.69;46.94
34674;BME280;20879;55.668;37.858;2023-05-07T06:13:39;101052.94;;;4.63;47.70
34674;BME280;20879;55.668;37.858;2023-05-07T06:16:08;101058.94;;;4.93;47.82
34674;BME280;20879;55.668;37.858;2023-05-07T06:18:37;101049.72;;;5.30;46.22
34674;BME280;20879;55.668;37.858;2023-05-07T06:21:07;101055.75;;;5.00;46.63
34674;BME280;20879;55.668;37.858;2023-05-07T06:23:37;101052.91;;;4.90;46.97
34674;BME280;20879;55.668;37.858;2023-05-07T06:26:13;101025.59;;;4.93;47.42
34674;BME280;20879;55.668;37.858;2023-05-07T06:28:48;101037.97;;;5.07;47.31
34674;BME280;20879;55.668;37.858;2023-05-07T06:31:19;101054.19;;;5.37;46.09
34674;BME280;20879;55.668;37.858;2023-05-07T06:33:54;101045.28;;;5.56;45.81
34674;BME280;20879;55.668;37.858;2023-05-07T06:36:30;101026.00;;;5.72;44.66
34674;BME280;20879;55.668;37.858;2023-05-07T06:39:03;101020.69;;;5.64;44.05
34674;BME280;20879;55.668;37.858;2023-05-07T06:41:33;101048.44;;;5.46;44.17
34674;BME280;20879;55.668;37.858;2023-05-07T06:44:18;101047.09;;;5.28;43.85
34674;BME280;20879;55.668;37.858;2023-05-07T06:47:06;101046.66;;;5.43;44.41
34674;BME280;20879;55.668;37.858;2023-05-07T06:49:38;101045.03;;;5.78;43.52
34674;BME280;20879;55.668;37.858;2023-05-07T06:52:08;101018.19;;;6.01;42.35
34674;BME280;20879;55.668;37.858;2023-05-07T06:54:37;101030.16;;;6.00;41.15
34674;BME280;20879;55.668;37.858;2023-05-07T06:57:08;101044.44;;;5.55;41.69
34674;BME280;20879;55.668;37.858;2023-05-07T06:59:45;101053.78;;;5.87;41.99
34674;BME280;20879;55.668;37.858;2023-05-07T07:02:15;101041.69;;;6.16;41.98
34674;BME280;20879;55.668;37.858;2023-05-07T07:04:46;101033.75;;;6.07;41.57
34674;BME280;20879;55.668;37.858;2023-05-07T07:07:16;101036.25;;;5.70;41.24
34674;BME280;20879;55.668;37.858;2023-05-07T07:09:52;101056.84;;;5.40;42.35
34674;BME280;20879;55.668;37.858;2023-05-07T07:12:22;101031.38;;;5.48;42.04
34674;BME280;20879;55.668;37.858;2023-05-07T07:14:54;101056.81;;;5.38;42.20
34674;BME280;20879;55.668;37.858;2023-05-07T07:17:24;101041.19;;;5.63;42.26
34674;BME280;20879;55.668;37.858;2023-05-07T07:19:55;101053.25;;;5.99;41.16
34674;BME280;20879;55.668;37.858;2023-05-07T07:22:24;101042.34;;;6.07;40.23
34674;BME280;20879;55.668;37.858;2023-05-07T07:24:53;101040.69;;;6.09;39.40
34674;BME280;20879;55.668;37.858;2023-05-07T07:27:23;101037.97;;;6.03;38.86
34674;BME280;20879;55.668;37.858;2023-05-07T07:29:56;101045.31;;;6.24;38.60
34674;BME280;20879;55.668;37.858;2023-05-07T07:32:26;101034.78;;;6.50;37.55
34674;BME280;20879;55.668;37.858;2023-05-07T07:34:56;101039.59;;;6.74;36.87
34674;BME280;20879;55.668;37.858;2023-05-07T07:37:28;101015.44;;;7.10;36.96
34674;BME280;20879;55.668;37.858;2023-05-07T07:39:58;101039.22;;;6.97;36.77
34674;BME280;20879;55.668;37.858;2023-05-07T07:42:30;101050.63;;;7.10;36.97
34674;BME280;20879;55.668;37.858;2023-05-07T07:45:03;101013.16;;;6.83;37.08
34674;BME280;20879;55.668;37.858;2023-05-07T07:47:36;101016.19;;;6.63;37.49
34674;BME280;20879;55.668;37.858;2023-05-07T07:50:06;100991.47;;;6.32;37.18
34674;BME280;20879;55.668;37.858;2023-05-07T07:52:36;101036.25;;;6.04;37.91
34674;BME280;20879;55.668;37.858;2023-05-07T07:55:08;101022.25;;;6.27;37.75
34674;BME280;20879;55.668;37.858;2023-05-07T07:57:39;101039.38;;;6.63;37.17
34674;BME280;20879;55.668;37.858;2023-05-07T08:00:17;101024.94;;;6.72;35.61
34674;BME280;20879;55.668;37.858;2023-05-07T08:03:02;101020.50;;;6.64;35.95
34674;BME280;20879;55.668;37.858;2023-05-07T08:05:36;101020.31;;;6.55;36.07
34674;BME280;20879;55.668;37.858;2023-05-07T08:08:07;101028.88;;;6.95;35.80
34674;BME280;20879;55.668;37.858;2023-05-07T08:10:38;101033.53;;;7.13;35.13
34674;BME280;20879;55.668;37.858;2023-05-07T08:13:15;101036.53;;;7.35;35.05
34674;BME280;20879;55.668;37.858;2023-05-07T08:15:48;101018.16;;;7.18;34.96
34674;BME280;20879;55.668;37.858;2023-05-07T08:18:23;101023.47;;;7.26;35.33
34674;BME280;20879;55.668;37.858;2023-05-07T08:20:56;101033.22;;;7.42;35.44
34674;BME280;20879;55.668;37.858;2023-05-07T08:23:26;101001.78;;;7.14;33.57
34674;BME280;20879;55.668;37.858;2023-05-07T08:25:56;101024.03;;;7.11;33.88
34674;BME280;20879;55.668;37.858;2023-05-07T08:28:26;101017.44;;;6.81;34.08
34674;BME280;20879;55.668;37.858;2023-05-07T08:30:57;101023.19;;;6.69;34.54
34674;BME280;20879;55.668;37.858;2023-05-07T08:33:31;101015.41;;;6.68;35.05
34674;BME280;20879;55.668;37.858;2023-05-07T08:36:04;101010.91;;;6.57;35.29
34674;BME280;20879;55.668;37.858;2023-05-07T08:38:39;101010.78;;;6.92;35.01
34674;BME280;20879;55.668;37.858;2023-05-07T08:41:12;101024.75;;;7.04;34.58
34674;BME280;20879;55.668;37.858;2023-05-07T08:43:48;101022.47;;;7.17;34.62
34674;BME280;20879;55.668;37.858;2023-05-07T08:46:21;101008.88;;;7.25;34.05
34674;BME280;20879;55.668;37.858;2023-05-07T08:48:54;101001.88;;;7.19;33.82
34674;BME280;20879;55.668;37.858;2023-05-07T08:51:24;101030.94;;;7.12;34.21
34674;BME280;20879;55.668;37.858;2023-05-07T08:53:54;101025.22;;;7.27;33.74
34674;BME280;20879;55.668;37.858;2023-05-07T08:56:29;101027.31;;;7.48;33.61
34674;BME280;20879;55.668;37.858;2023-05-07T08:58:59;101021.69;;;7.69;33.35
34674;BME280;20879;55.668;37.858;2023-05-07T09:01:35;101016.81;;;7.87;33.16
34674;BME280;20879;55.668;37.858;2023-05-07T09:04:16;101019.84;;;7.62;32.32
34674;BME280;20879;55.668;37.858;2023-05-07T09:06:46;101020.66;;;7.59;32.36
34674;BME280;20879;55.668;37.858;2023-05-07T09:09:21;100988.00;;;7.60;32.54
34674;BME280;20879;55.668;37.858;2023-05-07T09:11:57;101013.78;;;7.61;31.62
34674;BME280;20879;55.668;37.858;2023-05-07T09:14:31;101013.75;;;7.58;31.66
34674;BME280;20879;55.668;37.858;2023-05-07T09:17:10;100992.75;;;7.87;31.42
34674;BME280;20879;55.668;37.858;2023-05-07T09:19:39;101010.00;;;7.90;31.39
34674;BME280;20879;55.668;37.858;2023-05-07T09:22:08;101011.38;;;8.24;31.36
34674;BME280;20879;55.668;37.858;2023-05-07T09:24:49;101027.13;;;8.39;31.20
34674;BME280;20879;55.668;37.858;2023-05-07T09:27:27;101008.03;;;8.30;31.00
34674;BME280;20879;55.668;37.858;2023-05-07T09:29:58;100947.28;;;7.92;30.90
34674;BME280;20879;55.668;37.858;2023-05-07T09:32:34;101036.00;;;7.53;30.71
34674;BME280;20879;55.668;37.858;2023-05-07T09:35:14;101017.41;;;7.22;31.97
34674;BME280;20879;55.668;37.858;2023-05-07T09:37:51;100990.00;;;7.27;31.34
34674;BME280;20879;55.668;37.858;2023-05-07T09:40:23;101001.78;;;7.60;30.34
34674;BME280;20879;55.668;37.858;2023-05-07T09:42:56;100996.91;;;7.79;30.66
34674;BME280;20879;55.668;37.858;2023-05-07T09:45:41;100974.38;;;8.20;30.52
34674;BME280;20879;55.668;37.858;2023-05-07T09:48:20;100982.03;;;8.16;30.78
34674;BME280;20879;55.668;37.858;2023-05-07T09:50:55;101002.69;;;8.17;30.74
34674;BME280;20879;55.668;37.858;2023-05-07T09:53:30;101009.50;;;8.14;30.65
34674;BME280;20879;55.668;37.858;2023-05-07T09:56:13;100999.00;;;8.01;30.71
34674;BME280;20879;55.668;37.858;2023-05-07T09:58:43;101008.09;;;7.78;31.23
34674;BME280;20879;55.668;37.858;2023-05-07T10:01:16;101012.38;;;7.30;31.76
34674;BME280;20879;55.668;37.858;2023-05-07T10:03:51;101000.50;;;6.94;32.44
34674;BME280;20879;55.668;37.858;2023-05-07T10:06:23;101016.41;;;7.17;32.75
34674;BME280;20879;55.668;37.858;2023-05-07T10:08:54;100998.13;;;7.49;32.30
34674;BME280;20879;55.668;37.858;2023-05-07T10:11:24;100994.25;;;7.74;31.30
34674;BME280;20879;55.668;37.858;2023-05-07T10:13:54;100960.09;;;7.87;31.51
34674;BME280;20879;55.668;37.858;2023-05-07T10:16:24;100991.00;;;8.41;30.56
34674;BME280;20879;55.668;37.858;2023-05-07T10:18:57;101006.13;;;8.74;30.94
34674;BME280;20879;55.668;37.858;2023-05-07T10:21:34;101011.53;;;8.95;29.73
34674;BME280;20879;55.668;37.858;2023-05-07T10:24:08;100973.19;;;8.56;30.38
34674;BME280;20879;55.668;37.858;2023-05-07T10:26:44;100984.63;;;8.17;30.56
34674;BME280;20879;55.668;37.858;2023-05-07T10:29:33;100998.19;;;7.52;31.14
34674;BME280;20879;55.668;37.858;2023-05-07T10:32:38;100967.22;;;7.02;31.91
34674;BME280;20879;55.668;37.858;2023-05-07T10:35:20;101000.97;;;7.63;32.25
34674;BME280;20879;55.668;37.858;2023-05-07T10:37:57;100992.53;;;8.28;31.48
34674;BME280;20879;55.668;37.858;2023-05-07T10:40:30;101002.00;;;8.90;29.87
34674;BME280;20879;55.668;37.858;2023-05-07T10:43:03;100980.31;;;9.59;29.41
34674;BME280;20879;55.668;37.858;2023-05-07T10:46:11;100974.78;;;10.25;28.70
34674;BME280;20879;55.668;37.858;2023-05-07T10:49:09;100966.31;;;10.47;28.35
34674;BME280;20879;55.668;37.858;2023-05-07T10:55:23;101000.78;;;9.34;28.21
34674;BME280;20879;55.668;37.858;2023-05-07T10:58:23;100976.44;;;9.14;27.66
34674;BME280;20879;55.668;37.858;2023-05-07T11:01:49;101002.22;;;9.09;28.84
34674;BME280;20879;55.668;37.858;2023-05-07T11:04:31;101000.13;;;9.55;27.98
34674;BME280;20879;55.668;37.858;2023-05-07T11:07:29;100989.09;;;9.76;27.76
34674;BME280;20879;55.668;37.858;2023-05-07T11:10:05;101000.81;;;9.39;27.38
34674;BME280;20879;55.668;37.858;2023-05-07T11:12:52;100983.31;;;9.12;27.98
34674;BME280;20879;55.668;37.858;2023-05-07T11:15:43;101008.56;;;8.65;28.33
34674;BME280;20879;55.668;37.858;2023-05-07T11:18:46;100982.50;;;8.47;29.24
34674;BME280;20879;55.668;37.858;2023-05-07T11:21:34;100978.06;;;8.38;28.68
34674;BME280;20879;55.668;37.858;2023-05-07T11:24:25;100990.56;;;8.12;29.15
34674;BME280;20879;55.668;37.858;2023-05-07T11:27:00;101007.94;;;8.22;29.36
34674;BME280;20879;55.668;37.858;2023-05-07T11:29:33;100982.59;;;8.53;29.21
34674;BME280;20879;55.668;37.858;2023-05-07T11:32:14;101005.34;;;8.82;29.01
34674;BME280;20879;55.668;37.858;2023-05-07T11:34:51;101002.19;;;9.06;28.53
34674;BME280;20879;55.668;37.858;2023-05-07T11:37:23;101006.63;;;9.19;28.41
34674;BME280;20879;55.668;37.858;2023-05-07T11:40:06;101009.03;;;9.02;28.71
34674;BME280;20879;55.668;37.858;2023-05-07T11:42:39;100998.50;;;8.87;29.12
34674;BME280;20879;55.668;37.858;2023-05-07T11:45:23;101004.25;;;8.63;29.21
34674;BME280;20879;55.668;37.858;2023-05-07T11:47:53;100999.31;;;8.20;29.90
34674;BME280;20879;55.668;37.858;2023-05-07T11:50:22;101006.53;;;7.89;29.85
34674;BME280;20879;55.668;37.858;2023-05-07T11:52:52;101000.22;;;7.72;30.56
34674;BME280;20879;55.668;37.858;2023-05-07T11:55:21;101012.97;;;7.62;30.80
34674;BME280;20879;55.668;37.858;2023-05-07T11:57:52;101013.53;;;7.46;30.44
34674;BME280;20879;55.668;37.858;2023-05-07T12:00:24;100994.66;;;7.47;30.82
34674;BME280;20879;55.668;37.858;2023-05-07T12:02:53;101008.94;;;7.78;30.66
34674;BME280;20879;55.668;37.858;2023-05-07T12:05:23;100991.97;;;7.91;30.19
34674;BME280;20879;55.668;37.858;2023-05-07T12:07:56;100992.06;;;7.97;30.01
34674;BME280;20879;55.668;37.858;2023-05-07T12:10:25;100963.00;;;8.08;30.09
34674;BME280;20879;55.668;37.858;2023-05-07T12:12:55;100993.59;;;8.43;29.56
34674;BME280;20879;55.668;37.858;2023-05-07T12:15:27;100985.38;;;8.68;28.17
34674;BME280;20879;55.668;37.858;2023-05-07T12:17:57;100989.22;;;9.03;28.32
34674;BME280;20879;55.668;37.858;2023-05-07T12:20:26;100981.50;;;9.06;28.77
34674;BME280;20879;55.668;37.858;2023-05-07T12:22:56;100987.69;;;9.19;28.67
34674;BME280;20879;55.668;37.858;2023-05-07T12:25:31;100928.28;;;9.22;27.90
34674;BME280;20879;55.668;37.858;2023-05-07T12:28:01;100986.38;;;8.81;28.19
34674;BME280;20879;55.668;37.858;2023-05-07T12:30:37;100991.66;;;8.89;28.62
34674;BME280;20879;55.668;37.858;2023-05-07T12:33:07;100978.00;;;8.99;28.50
34674;BME280;20879;55.668;37.858;2023-05-07T12:35:38;100964.88;;;8.82;28.32
34674;BME280;20879;55.668;37.858;2023-05-07T12:38:09;100967.72;;;9.02;28.66
34674;BME280;20879;55.668;37.858;2023-05-07T12:40:44;101002.16;;;9.04;28.79
34674;BME280;20879;55.668;37.858;2023-05-07T12:43:17;100952.25;;;9.07;28.46
34674;BME280;20879;55.668;37.858;2023-05-07T12:51:39;100957.13;;;8.19;29.24
34674;BME280;20879;55.668;37.858;2023-05-07T12:54:09;100983.63;;;8.67;29.48
34674;BME280;20879;55.668;37.858;2023-05-07T12:56:39;100986.84;;;9.20;28.56
34674;BME280;20879;55.668;37.858;2023-05-07T12:59:15;100971.34;;;9.21;28.77
34674;BME280;20879;55.668;37.858;2023-05-07T13:01:44;100981.47;;;9.01;29.14
34674;BME280;20879;55.668;37.858;2023-05-07T13:04:14;100960.66;;;8.89;28.78
34674;BME280;20879;55.668;37.858;2023-05-07T13:06:45;100980.88;;;9.25;28.45
34674;BME280;20879;55.668;37.858;2023-05-07T13:12:02;100967.44;;;9.62;28.52
34674;BME280;20879;55.668;37.858;2023-05-07T13:14:36;100970.72;;;9.47;28.39
34674;BME280;20879;55.668;37.858;2023-05-07T13:17:07;100975.84;;;9.41;28.35
34674;BME280;20879;55.668;37.858;2023-05-07T13:19:36;100974.97;;;9.37;28.63
34674;BME280;20879;55.668;37.858;2023-05-07T13:22:08;100975.75;;;9.29;28.51
34674;BME280;20879;55.668;37.858;2023-05-07T13:24:38;100961.50;;;8.88;29.25
34674;BME280;20879;55.668;37.858;2023-05-07T13:27:13;100999.94;;;8.63;29.09
34674;BME280;20879;55.668;37.858;2023-05-07T13:29:48;100994.78;;;8.63;29.24
34674;BME280;20879;55.668;37.858;2023-05-07T13:32:17;100974.78;;;8.48;29.18